sensor_id;sensor_type;location;lat;lon;timestamp;temperature;humidity
52973;DHT22;38837;48.916;2.336;2023-08-24T00:01:04;27.40;57.10
52973;DHT22;38837;48.916;2.336;2023-08-24T00:03:06;27.40;57.20
52973;DHT22;38837;48.916;2.336;2023-08-24T00:05:08;27.30;57.30
52973;DHT22;38837;48.916;2.336;2023-08-24T00:07:10;27.40;57.10
52973;DHT22;38837;48.916;2.336;2023-08-24T00:09:12;27.40;57.10
52973;DHT22;38837;48.916;2.336;2023-08-24T00:11:14;27.40;57.40
52973;DHT22;38837;48.916;2.336;2023-08-24T00:13:18;27.40;57.20
52973;DHT22;38837;48.916;2.336;2023-08-24T00:15:20;27.40;57.30
52973;DHT22;38837;48.916;2.336;2023-08-24T00:17:22;27.30;57.30
52973;DHT22;38837;48.916;2.336;2023-08-24T00:19:25;27.30;57.60
52973;DHT22;38837;48.916;2.336;2023-08-24T00:21:27;27.30;57.50
52973;DHT22;38837;48.916;2.336;2023-08-24T00:23:30;27.30;57.30
52973;DHT22;38837;48.916;2.336;2023-08-24T00:25:32;27.30;57.50
52973;DHT22;38837;48.916;2.336;2023-08-24T00:27:35;27.30;57.40
52973;DHT22;38837;48.916;2.336;2023-08-24T00:29:37;27.30;57.60
52973;DHT22;38837;48.916;2.336;2023-08-24T00:31:38;27.30;57.60
52973;DHT22;38837;48.916;2.336;2023-08-24T00:33:40;27.30;57.50
52973;DHT22;38837;48.916;2.336;2023-08-24T00:35:42;27.30;57.70
52973;DHT22;38837;48.916;2.336;2023-08-24T00:37:44;27.30;57.70
52973;DHT22;38837;48.916;2.336;2023-08-24T00:39:46;27.30;57.60
52973;DHT22;38837;48.916;2.336;2023-08-24T00:41:48;27.30;57.60
52973;DHT22;38837;48.916;2.336;2023-08-24T00:43:50;27.30;57.60
52973;DHT22;38837;48.916;2.336;2023-08-24T00:45:53;27.30;57.50
52973;DHT22;38837;48.916;2.336;2023-08-24T00:47:56;27.30;57.50
52973;DHT22;38837;48.916;2.336;2023-08-24T00:50:00;27.20;57.40
52973;DHT22;38837;48.916;2.336;2023-08-24T00:52:02;27.20;57.50
52973;DHT22;38837;48.916;2.336;2023-08-24T00:54:04;27.20;57.70
52973;DHT22;38837;48.916;2.336;2023-08-24T00:56:06;27.20;57.60
52973;DHT22;38837;48.916;2.336;2023-08-24T00:58:08;27.20;57.60
52973;DHT22;38837;48.916;2.336;2023-08-24T01:00:11;27.20;57.60
52973;DHT22;38837;48.916;2.336;2023-08-24T01:02:13;27.20;58.20
52973;DHT22;38837;48.916;2.336;2023-08-24T01:04:16;27.20;57.60
52973;DHT22;38837;48.916;2.336;2023-08-24T01:06:18;27.20;57.80
52973;DHT22;38837;48.916;2.336;2023-08-24T01:08:23;27.20;57.80
52973;DHT22;38837;48.916;2.336;2023-08-24T01:10:37;27.10;57.70
52973;DHT22;38837;48.916;2.336;2023-08-24T01:13:02;27.10;57.90
52973;DHT22;38837;48.916;2.336;2023-08-24T01:17:15;27.10;57.70
52973;DHT22;38837;48.916;2.336;2023-08-24T01:21:37;27.10;57.60
52973;DHT22;38837;48.916;2.336;2023-08-24T01:24:03;27.10;57.70
52973;DHT22;38837;48.916;2.336;2023-08-24T01:28:13;27.10;57.90
52973;DHT22;38837;48.916;2.336;2023-08-24T01:30:15;27.10;57.80
52973;DHT22;38837;48.916;2.336;2023-08-24T01:32:17;27.10;57.90
52973;DHT22;38837;48.916;2.336;2023-08-24T01:34:21;27.10;57.80
52973;DHT22;38837;48.916;2.336;2023-08-24T01:36:23;27.10;57.80
52973;DHT22;38837;48.916;2.336;2023-08-24T01:38:27;27.10;57.80
52973;DHT22;38837;48.916;2.336;2023-08-24T01:40:51;27.10;57.90
52973;DHT22;38837;48.916;2.336;2023-08-24T01:43:05;27.10;57.90
52973;DHT22;38837;48.916;2.336;2023-08-24T01:45:09;27.10;57.80
52973;DHT22;38837;48.916;2.336;2023-08-24T01:47:12;27.10;57.90
52973;DHT22;38837;48.916;2.336;2023-08-24T01:49:17;27.10;58.00
52973;DHT22;38837;48.916;2.336;2023-08-24T01:51:19;27.10;58.00
52973;DHT22;38837;48.916;2.336;2023-08-24T01:53:21;27.00;57.80
52973;DHT22;38837;48.916;2.336;2023-08-24T01:55:23;27.10;57.90
52973;DHT22;38837;48.916;2.336;2023-08-24T01:57:25;27.10;58.00
52973;DHT22;38837;48.916;2.336;2023-08-24T01:59:27;27.00;57.80
52973;DHT22;38837;48.916;2.336;2023-08-24T02:01:29;27.00;57.90
52973;DHT22;38837;48.916;2.336;2023-08-24T02:03:31;27.00;57.90
52973;DHT22;38837;48.916;2.336;2023-08-24T02:05:33;27.00;57.90
52973;DHT22;38837;48.916;2.336;2023-08-24T02:07:35;27.00;57.90
52973;DHT22;38837;48.916;2.336;2023-08-24T02:09:37;27.00;57.90
52973;DHT22;38837;48.916;2.336;2023-08-24T02:11:39;27.00;57.80
52973;DHT22;38837;48.916;2.336;2023-08-24T02:13:41;27.00;57.80
52973;DHT22;38837;48.916;2.336;2023-08-24T02:15:43;27.00;57.80
52973;DHT22;38837;48.916;2.336;2023-08-24T02:17:45;27.00;58.40
52973;DHT22;38837;48.916;2.336;2023-08-24T02:19:47;26.90;57.90
52973;DHT22;38837;48.916;2.336;2023-08-24T02:21:49;27.00;58.10
52973;DHT22;38837;48.916;2.336;2023-08-24T02:23:51;26.90;58.00
52973;DHT22;38837;48.916;2.336;2023-08-24T02:25:53;26.90;58.00
52973;DHT22;38837;48.916;2.336;2023-08-24T02:27:55;26.90;58.00
52973;DHT22;38837;48.916;2.336;2023-08-24T02:29:57;26.90;57.90
52973;DHT22;38837;48.916;2.336;2023-08-24T02:31:58;26.90;57.90
52973;DHT22;38837;48.916;2.336;2023-08-24T02:34:00;26.90;58.00
52973;DHT22;38837;48.916;2.336;2023-08-24T02:36:02;26.90;58.50
52973;DHT22;38837;48.916;2.336;2023-08-24T02:38:04;26.90;58.00
52973;DHT22;38837;48.916;2.336;2023-08-24T02:40:07;26.90;58.00
52973;DHT22;38837;48.916;2.336;2023-08-24T02:42:11;26.90;58.00
52973;DHT22;38837;48.916;2.336;2023-08-24T02:44:13;26.90;58.00
52973;DHT22;38837;48.916;2.336;2023-08-24T02:46:14;26.90;58.00
52973;DHT22;38837;48.916;2.336;2023-08-24T02:48:16;26.90;58.10
52973;DHT22;38837;48.916;2.336;2023-08-24T02:50:18;26.90;58.00
52973;DHT22;38837;48.916;2.336;2023-08-24T02:52:20;26.90;58.10
52973;DHT22;38837;48.916;2.336;2023-08-24T02:54:22;26.90;58.10
52973;DHT22;38837;48.916;2.336;2023-08-24T02:56:24;26.80;58.00
52973;DHT22;38837;48.916;2.336;2023-08-24T02:58:26;26.80;58.00
52973;DHT22;38837;48.916;2.336;2023-08-24T03:00:28;26.90;58.10
52973;DHT22;38837;48.916;2.336;2023-08-24T03:02:30;26.80;58.00
52973;DHT22;38837;48.916;2.336;2023-08-24T03:04:32;26.80;58.00
52973;DHT22;38837;48.916;2.336;2023-08-24T03:06:35;26.80;58.50
52973;DHT22;38837;48.916;2.336;2023-08-24T03:08:37;26.80;58.00
52973;DHT22;38837;48.916;2.336;2023-08-24T03:10:39;26.80;58.00
52973;DHT22;38837;48.916;2.336;2023-08-24T03:12:41;26.80;58.00
52973;DHT22;38837;48.916;2.336;2023-08-24T03:14:42;26.80;58.00
52973;DHT22;38837;48.916;2.336;2023-08-24T03:16:44;26.80;58.00
52973;DHT22;38837;48.916;2.336;2023-08-24T03:18:46;26.80;58.00
52973;DHT22;38837;48.916;2.336;2023-08-24T03:20:49;26.80;58.00
52973;DHT22;38837;48.916;2.336;2023-08-24T03:22:51;26.80;58.00
52973;DHT22;38837;48.916;2.336;2023-08-24T03:24:53;26.80;58.00
52973;DHT22;38837;48.916;2.336;2023-08-24T03:26:55;26.80;58.00
52973;DHT22;38837;48.916;2.336;2023-08-24T03:28:57;26.80;58.10
52973;DHT22;38837;48.916;2.336;2023-08-24T03:31:00;26.80;58.00
52973;DHT22;38837;48.916;2.336;2023-08-24T03:33:02;26.80;58.00
52973;DHT22;38837;48.916;2.336;2023-08-24T03:35:05;26.80;58.00
52973;DHT22;38837;48.916;2.336;2023-08-24T03:37:07;26.80;58.00
52973;DHT22;38837;48.916;2.336;2023-08-24T03:39:08;26.80;58.00
52973;DHT22;38837;48.916;2.336;2023-08-24T03:41:10;26.80;58.00
52973;DHT22;38837;48.916;2.336;2023-08-24T03:43:12;26.80;58.00
52973;DHT22;38837;48.916;2.336;2023-08-24T03:45:14;26.80;58.00
52973;DHT22;38837;48.916;2.336;2023-08-24T03:47:16;26.80;58.00
52973;DHT22;38837;48.916;2.336;2023-08-24T03:49:18;26.80;58.10
52973;DHT22;38837;48.916;2.336;2023-08-24T03:51:20;26.70;58.10
52973;DHT22;38837;48.916;2.336;2023-08-24T03:53:22;26.80;58.10
52973;DHT22;38837;48.916;2.336;2023-08-24T03:55:24;26.80;58.10
52973;DHT22;38837;48.916;2.336;2023-08-24T03:57:27;26.80;58.10
52973;DHT22;38837;48.916;2.336;2023-08-24T03:59:29;26.80;58.10
52973;DHT22;38837;48.916;2.336;2023-08-24T04:01:30;26.80;58.00
52973;DHT22;38837;48.916;2.336;2023-08-24T04:03:32;26.80;58.10
52973;DHT22;38837;48.916;2.336;2023-08-24T04:05:34;26.80;58.00
52973;DHT22;38837;48.916;2.336;2023-08-24T04:07:36;26.80;58.10
52973;DHT22;38837;48.916;2.336;2023-08-24T04:09:40;26.70;58.00
52973;DHT22;38837;48.916;2.336;2023-08-24T04:11:42;26.70;58.00
52973;DHT22;38837;48.916;2.336;2023-08-24T04:13:44;26.70;58.00
52973;DHT22;38837;48.916;2.336;2023-08-24T04:15:45;26.70;58.00
52973;DHT22;38837;48.916;2.336;2023-08-24T04:17:48;26.70;58.10
52973;DHT22;38837;48.916;2.336;2023-08-24T04:19:51;26.70;58.10
52973;DHT22;38837;48.916;2.336;2023-08-24T04:21:53;26.70;58.00
52973;DHT22;38837;48.916;2.336;2023-08-24T04:23:54;26.70;58.10
52973;DHT22;38837;48.916;2.336;2023-08-24T04:25:56;26.70;58.10
52973;DHT22;38837;48.916;2.336;2023-08-24T04:27:58;26.70;58.10
52973;DHT22;38837;48.916;2.336;2023-08-24T04:30:00;26.70;58.10
52973;DHT22;38837;48.916;2.336;2023-08-24T04:32:03;26.70;58.10
52973;DHT22;38837;48.916;2.336;2023-08-24T04:34:04;26.70;58.10
52973;DHT22;38837;48.916;2.336;2023-08-24T04:36:07;26.70;58.10
52973;DHT22;38837;48.916;2.336;2023-08-24T04:38:09;26.70;58.70
52973;DHT22;38837;48.916;2.336;2023-08-24T04:40:12;26.70;58.10
52973;DHT22;38837;48.916;2.336;2023-08-24T04:42:14;26.70;58.20
52973;DHT22;38837;48.916;2.336;2023-08-24T04:44:16;26.70;58.20
52973;DHT22;38837;48.916;2.336;2023-08-24T04:46:18;26.70;58.20
52973;DHT22;38837;48.916;2.336;2023-08-24T04:48:23;26.70;58.20
52973;DHT22;38837;48.916;2.336;2023-08-24T04:50:25;26.70;58.20
52973;DHT22;38837;48.916;2.336;2023-08-24T04:52:27;26.70;58.20
52973;DHT22;38837;48.916;2.336;2023-08-24T04:54:29;26.70;58.20
52973;DHT22;38837;48.916;2.336;2023-08-24T04:56:31;26.70;58.20
52973;DHT22;38837;48.916;2.336;2023-08-24T04:58:33;26.70;58.20
52973;DHT22;38837;48.916;2.336;2023-08-24T05:00:36;26.60;58.10
52973;DHT22;38837;48.916;2.336;2023-08-24T05:02:39;26.60;58.10
52973;DHT22;38837;48.916;2.336;2023-08-24T05:04:41;26.70;58.10
52973;DHT22;38837;48.916;2.336;2023-08-24T05:06:43;26.70;58.20
52973;DHT22;38837;48.916;2.336;2023-08-24T05:08:45;26.60;58.70
52973;DHT22;38837;48.916;2.336;2023-08-24T05:10:47;26.70;58.20
52973;DHT22;38837;48.916;2.336;2023-08-24T05:12:48;26.70;58.20
52973;DHT22;38837;48.916;2.336;2023-08-24T05:14:50;26.60;58.10
52973;DHT22;38837;48.916;2.336;2023-08-24T05:16:52;26.60;58.10
52973;DHT22;38837;48.916;2.336;2023-08-24T05:18:54;26.60;58.20
52973;DHT22;38837;48.916;2.336;2023-08-24T05:20:56;26.60;58.20
52973;DHT22;38837;48.916;2.336;2023-08-24T05:22:58;26.60;58.20
52973;DHT22;38837;48.916;2.336;2023-08-24T05:25:01;26.60;58.20
52973;DHT22;38837;48.916;2.336;2023-08-24T05:27:03;26.60;58.70
52973;DHT22;38837;48.916;2.336;2023-08-24T05:29:05;26.60;58.20
52973;DHT22;38837;48.916;2.336;2023-08-24T05:31:08;26.60;58.20
52973;DHT22;38837;48.916;2.336;2023-08-24T05:33:10;26.60;58.20
52973;DHT22;38837;48.916;2.336;2023-08-24T05:35:12;26.60;58.10
52973;DHT22;38837;48.916;2.336;2023-08-24T05:37:14;26.60;58.20
52973;DHT22;38837;48.916;2.336;2023-08-24T05:39:16;26.60;58.10
52973;DHT22;38837;48.916;2.336;2023-08-24T05:41:18;26.60;58.10
52973;DHT22;38837;48.916;2.336;2023-08-24T05:43:20;26.60;58.10
52973;DHT22;38837;48.916;2.336;2023-08-24T05:45:21;26.60;58.10
52973;DHT22;38837;48.916;2.336;2023-08-24T05:47:27;26.60;58.10
52973;DHT22;38837;48.916;2.336;2023-08-24T05:49:29;26.70;58.10
52973;DHT22;38837;48.916;2.336;2023-08-24T05:51:31;26.70;58.00
52973;DHT22;38837;48.916;2.336;2023-08-24T05:53:33;26.70;58.00
52973;DHT22;38837;48.916;2.336;2023-08-24T05:55:35;26.60;57.90
52973;DHT22;38837;48.916;2.336;2023-08-24T05:57:37;26.70;58.00
52973;DHT22;38837;48.916;2.336;2023-08-24T05:59:39;26.70;58.00
52973;DHT22;38837;48.916;2.336;2023-08-24T06:01:41;26.70;58.00
52973;DHT22;38837;48.916;2.336;2023-08-24T06:03:43;26.60;58.00
52973;DHT22;38837;48.916;2.336;2023-08-24T06:05:45;26.60;58.00
52973;DHT22;38837;48.916;2.336;2023-08-24T06:07:48;26.70;58.00
52973;DHT22;38837;48.916;2.336;2023-08-24T06:09:50;26.60;58.00
52973;DHT22;38837;48.916;2.336;2023-08-24T06:11:52;26.60;58.00
52973;DHT22;38837;48.916;2.336;2023-08-24T06:13:54;26.70;58.00
52973;DHT22;38837;48.916;2.336;2023-08-24T06:15:56;26.70;58.00
52973;DHT22;38837;48.916;2.336;2023-08-24T06:17:58;26.70;58.00
52973;DHT22;38837;48.916;2.336;2023-08-24T06:20:03;26.70;58.00
52973;DHT22;38837;48.916;2.336;2023-08-24T06:22:05;26.70;57.90
52973;DHT22;38837;48.916;2.336;2023-08-24T06:24:07;26.70;57.80
52973;DHT22;38837;48.916;2.336;2023-08-24T06:26:09;26.70;57.90
52973;DHT22;38837;48.916;2.336;2023-08-24T06:28:11;26.60;57.90
52973;DHT22;38837;48.916;2.336;2023-08-24T06:30:14;26.70;57.90
52973;DHT22;38837;48.916;2.336;2023-08-24T06:32:15;26.70;57.90
52973;DHT22;38837;48.916;2.336;2023-08-24T06:34:17;26.70;57.90
52973;DHT22;38837;48.916;2.336;2023-08-24T06:36:19;26.60;57.90
52973;DHT22;38837;48.916;2.336;2023-08-24T06:38:21;26.60;57.90
52973;DHT22;38837;48.916;2.336;2023-08-24T06:40:23;26.70;58.00
52973;DHT22;38837;48.916;2.336;2023-08-24T06:42:25;26.60;57.90
52973;DHT22;38837;48.916;2.336;2023-08-24T06:44:27;26.60;57.80
52973;DHT22;38837;48.916;2.336;2023-08-24T06:46:29;26.60;57.90
52973;DHT22;38837;48.916;2.336;2023-08-24T06:48:31;26.60;57.90
52973;DHT22;38837;48.916;2.336;2023-08-24T06:50:33;26.60;57.80
52973;DHT22;38837;48.916;2.336;2023-08-24T06:52:35;26.70;58.00
52973;DHT22;38837;48.916;2.336;2023-08-24T06:54:37;26.70;57.80
52973;DHT22;38837;48.916;2.336;2023-08-24T06:56:39;26.70;57.80
52973;DHT22;38837;48.916;2.336;2023-08-24T06:58:41;26.70;57.80
52973;DHT22;38837;48.916;2.336;2023-08-24T07:00:43;26.70;57.80
52973;DHT22;38837;48.916;2.336;2023-08-24T07:02:47;26.70;57.80
52973;DHT22;38837;48.916;2.336;2023-08-24T07:04:49;26.60;57.70
52973;DHT22;38837;48.916;2.336;2023-08-24T07:06:50;26.70;57.80
52973;DHT22;38837;48.916;2.336;2023-08-24T07:08:53;26.60;57.70
52973;DHT22;38837;48.916;2.336;2023-08-24T07:10:55;26.70;57.80
52973;DHT22;38837;48.916;2.336;2023-08-24T07:12:57;26.70;57.80
52973;DHT22;38837;48.916;2.336;2023-08-24T07:14:59;26.70;57.80
52973;DHT22;38837;48.916;2.336;2023-08-24T07:17:00;26.70;57.80
52973;DHT22;38837;48.916;2.336;2023-08-24T07:19:02;26.70;57.70
52973;DHT22;38837;48.916;2.336;2023-08-24T07:21:06;26.70;57.70
52973;DHT22;38837;48.916;2.336;2023-08-24T07:23:07;26.70;57.60
52973;DHT22;38837;48.916;2.336;2023-08-24T07:25:09;26.70;57.60
52973;DHT22;38837;48.916;2.336;2023-08-24T07:27:13;26.80;57.50
52973;DHT22;38837;48.916;2.336;2023-08-24T07:29:15;26.80;57.40
52973;DHT22;38837;48.916;2.336;2023-08-24T07:31:16;26.70;57.30
52973;DHT22;38837;48.916;2.336;2023-08-24T07:33:18;26.80;57.10
52973;DHT22;38837;48.916;2.336;2023-08-24T07:35:22;26.80;57.20
52973;DHT22;38837;48.916;2.336;2023-08-24T07:37:27;26.80;56.90
52973;DHT22;38837;48.916;2.336;2023-08-24T07:39:29;26.80;57.10
52973;DHT22;38837;48.916;2.336;2023-08-24T07:41:30;26.70;57.00
52973;DHT22;38837;48.916;2.336;2023-08-24T07:43:32;26.80;57.20
52973;DHT22;38837;48.916;2.336;2023-08-24T07:45:35;26.80;57.20
52973;DHT22;38837;48.916;2.336;2023-08-24T07:47:37;26.70;57.20
52973;DHT22;38837;48.916;2.336;2023-08-24T07:49:39;26.70;57.20
52973;DHT22;38837;48.916;2.336;2023-08-24T07:51:47;26.70;57.20
52973;DHT22;38837;48.916;2.336;2023-08-24T07:53:52;26.80;57.30
52973;DHT22;38837;48.916;2.336;2023-08-24T07:55:54;26.80;57.40
52973;DHT22;38837;48.916;2.336;2023-08-24T07:57:59;26.80;57.40
52973;DHT22;38837;48.916;2.336;2023-08-24T08:00:00;26.80;57.30
52973;DHT22;38837;48.916;2.336;2023-08-24T08:02:05;26.80;57.10
52973;DHT22;38837;48.916;2.336;2023-08-24T08:04:07;26.80;57.00
52973;DHT22;38837;48.916;2.336;2023-08-24T08:06:09;26.80;56.90
52973;DHT22;38837;48.916;2.336;2023-08-24T08:08:13;26.80;56.80
52973;DHT22;38837;48.916;2.336;2023-08-24T08:10:15;26.90;56.90
52973;DHT22;38837;48.916;2.336;2023-08-24T08:12:21;26.90;56.90
52973;DHT22;38837;48.916;2.336;2023-08-24T08:14:23;26.90;56.80
52973;DHT22;38837;48.916;2.336;2023-08-24T08:16:27;26.90;56.70
52973;DHT22;38837;48.916;2.336;2023-08-24T08:18:29;26.90;56.70
52973;DHT22;38837;48.916;2.336;2023-08-24T08:20:31;27.00;56.60
52973;DHT22;38837;48.916;2.336;2023-08-24T08:22:33;26.90;56.50
52973;DHT22;38837;48.916;2.336;2023-08-24T08:24:39;26.90;56.50
52973;DHT22;38837;48.916;2.336;2023-08-24T08:26:41;26.90;56.50
52973;DHT22;38837;48.916;2.336;2023-08-24T08:28:43;27.00;56.70
52973;DHT22;38837;48.916;2.336;2023-08-24T08:30:48;26.90;56.70
52973;DHT22;38837;48.916;2.336;2023-08-24T08:32:51;27.00;56.70
52973;DHT22;38837;48.916;2.336;2023-08-24T08:34:54;27.00;56.80
52973;DHT22;38837;48.916;2.336;2023-08-24T08:36:58;27.00;56.80
52973;DHT22;38837;48.916;2.336;2023-08-24T08:39:00;27.00;56.90
52973;DHT22;38837;48.916;2.336;2023-08-24T08:41:04;27.00;56.80
52973;DHT22;38837;48.916;2.336;2023-08-24T08:43:06;27.00;56.90
52973;DHT22;38837;48.916;2.336;2023-08-24T08:45:11;27.00;56.80
52973;DHT22;38837;48.916;2.336;2023-08-24T08:47:14;27.00;56.90
52973;DHT22;38837;48.916;2.336;2023-08-24T08:49:17;27.10;57.10
52973;DHT22;38837;48.916;2.336;2023-08-24T08:51:21;27.00;57.20
52973;DHT22;38837;48.916;2.336;2023-08-24T08:53:23;27.00;57.20
52973;DHT22;38837;48.916;2.336;2023-08-24T08:55:25;27.00;57.10
52973;DHT22;38837;48.916;2.336;2023-08-24T08:57:27;27.00;57.10
52973;DHT22;38837;48.916;2.336;2023-08-24T08:59:34;27.00;57.20
52973;DHT22;38837;48.916;2.336;2023-08-24T09:01:37;27.00;57.20
52973;DHT22;38837;48.916;2.336;2023-08-24T09:03:39;27.10;57.20
52973;DHT22;38837;48.916;2.336;2023-08-24T09:05:43;27.00;57.20
52973;DHT22;38837;48.916;2.336;2023-08-24T09:07:45;27.10;57.30
52973;DHT22;38837;48.916;2.336;2023-08-24T09:09:49;27.10;57.30
52973;DHT22;38837;48.916;2.336;2023-08-24T09:11:52;27.10;57.40
52973;DHT22;38837;48.916;2.336;2023-08-24T09:13:55;27.10;57.40
52973;DHT22;38837;48.916;2.336;2023-08-24T09:16:07;27.10;57.30
52973;DHT22;38837;48.916;2.336;2023-08-24T09:18:09;27.10;57.40
52973;DHT22;38837;48.916;2.336;2023-08-24T09:20:11;27.10;57.40
52973;DHT22;38837;48.916;2.336;2023-08-24T09:22:15;27.20;57.40
52973;DHT22;38837;48.916;2.336;2023-08-24T09:24:16;27.10;57.30
52973;DHT22;38837;48.916;2.336;2023-08-24T09:26:32;27.20;57.30
52973;DHT22;38837;48.916;2.336;2023-08-24T09:28:35;27.20;57.20
52973;DHT22;38837;48.916;2.336;2023-08-24T09:30:38;27.20;57.20
52973;DHT22;38837;48.916;2.336;2023-08-24T09:32:40;27.10;57.00
52973;DHT22;38837;48.916;2.336;2023-08-24T09:34:43;27.20;57.10
52973;DHT22;38837;48.916;2.336;2023-08-24T09:36:45;27.10;56.90
52973;DHT22;38837;48.916;2.336;2023-08-24T09:38:49;27.10;56.80
52973;DHT22;38837;48.916;2.336;2023-08-24T09:40:55;27.10;56.80
52973;DHT22;38837;48.916;2.336;2023-08-24T09:43:01;27.10;56.80
52973;DHT22;38837;48.916;2.336;2023-08-24T09:45:04;27.10;56.90
52973;DHT22;38837;48.916;2.336;2023-08-24T09:47:09;27.10;56.90
52973;DHT22;38837;48.916;2.336;2023-08-24T09:49:12;27.10;56.90
52973;DHT22;38837;48.916;2.336;2023-08-24T09:51:15;27.10;56.90
52973;DHT22;38837;48.916;2.336;2023-08-24T09:53:22;27.10;56.90
52973;DHT22;38837;48.916;2.336;2023-08-24T09:55:25;27.10;56.90
52973;DHT22;38837;48.916;2.336;2023-08-24T09:57:36;27.10;56.80
52973;DHT22;38837;48.916;2.336;2023-08-24T09:59:39;27.10;56.80
52973;DHT22;38837;48.916;2.336;2023-08-24T10:01:46;27.10;56.80
52973;DHT22;38837;48.916;2.336;2023-08-24T10:03:51;27.10;56.70
52973;DHT22;38837;48.916;2.336;2023-08-24T10:05:58;27.10;56.70
52973;DHT22;38837;48.916;2.336;2023-08-24T10:08:09;27.10;56.70
52973;DHT22;38837;48.916;2.336;2023-08-24T10:10:12;27.10;56.80
52973;DHT22;38837;48.916;2.336;2023-08-24T10:12:18;27.10;56.80
52973;DHT22;38837;48.916;2.336;2023-08-24T10:14:29;27.10;56.70
52973;DHT22;38837;48.916;2.336;2023-08-24T10:16:33;27.10;56.80
52973;DHT22;38837;48.916;2.336;2023-08-24T10:18:37;27.20;56.80
52973;DHT22;38837;48.916;2.336;2023-08-24T10:20:38;27.20;56.90
52973;DHT22;38837;48.916;2.336;2023-08-24T10:22:41;27.20;56.90
52973;DHT22;38837;48.916;2.336;2023-08-24T10:24:44;27.10;56.80
52973;DHT22;38837;48.916;2.336;2023-08-24T10:26:46;27.10;56.90
52973;DHT22;38837;48.916;2.336;2023-08-24T10:28:48;27.10;56.80
52973;DHT22;38837;48.916;2.336;2023-08-24T10:30:51;27.10;56.90
52973;DHT22;38837;48.916;2.336;2023-08-24T10:32:54;27.20;56.90
52973;DHT22;38837;48.916;2.336;2023-08-24T10:34:57;27.20;56.90
52973;DHT22;38837;48.916;2.336;2023-08-24T10:37:11;27.20;56.90
52973;DHT22;38837;48.916;2.336;2023-08-24T10:39:13;27.20;56.90
52973;DHT22;38837;48.916;2.336;2023-08-24T10:41:16;27.10;56.80
52973;DHT22;38837;48.916;2.336;2023-08-24T10:43:17;27.10;56.80
52973;DHT22;38837;48.916;2.336;2023-08-24T10:45:22;27.10;56.80
52973;DHT22;38837;48.916;2.336;2023-08-24T10:47:25;27.10;56.70
52973;DHT22;38837;48.916;2.336;2023-08-24T10:49:30;27.20;56.80
52973;DHT22;38837;48.916;2.336;2023-08-24T10:51:43;27.20;56.90
52973;DHT22;38837;48.916;2.336;2023-08-24T10:55:47;27.20;56.90
52973;DHT22;38837;48.916;2.336;2023-08-24T10:58:15;27.10;56.80
52973;DHT22;38837;48.916;2.336;2023-08-24T11:00:21;27.20;56.80
52973;DHT22;38837;48.916;2.336;2023-08-24T11:02:24;27.10;56.70
52973;DHT22;38837;48.916;2.336;2023-08-24T11:04:27;27.10;56.70
52973;DHT22;38837;48.916;2.336;2023-08-24T11:06:29;27.20;56.80
52973;DHT22;38837;48.916;2.336;2023-08-24T11:08:47;27.20;56.90
52973;DHT22;38837;48.916;2.336;2023-08-24T11:10:49;27.10;56.90
52973;DHT22;38837;48.916;2.336;2023-08-24T11:13:11;27.20;56.90
52973;DHT22;38837;48.916;2.336;2023-08-24T11:15:32;27.10;57.00
52973;DHT22;38837;48.916;2.336;2023-08-24T11:17:34;27.10;57.20
52973;DHT22;38837;48.916;2.336;2023-08-24T11:19:36;27.10;57.30
52973;DHT22;38837;48.916;2.336;2023-08-24T11:21:40;27.10;57.40
52973;DHT22;38837;48.916;2.336;2023-08-24T11:23:43;27.10;57.60
52973;DHT22;38837;48.916;2.336;2023-08-24T11:25:46;27.10;57.50
52973;DHT22;38837;48.916;2.336;2023-08-24T11:27:48;27.10;57.60
52973;DHT22;38837;48.916;2.336;2023-08-24T11:30:00;27.10;57.60
52973;DHT22;38837;48.916;2.336;2023-08-24T11:32:03;27.10;57.60
52973;DHT22;38837;48.916;2.336;2023-08-24T11:34:06;27.10;57.60
52973;DHT22;38837;48.916;2.336;2023-08-24T11:36:09;27.00;57.80
52973;DHT22;38837;48.916;2.336;2023-08-24T11:38:11;27.00;57.80
52973;DHT22;38837;48.916;2.336;2023-08-24T11:40:17;27.10;57.90
52973;DHT22;38837;48.916;2.336;2023-08-24T11:42:20;27.10;57.80
52973;DHT22;38837;48.916;2.336;2023-08-24T11:44:22;27.10;57.80
52973;DHT22;38837;48.916;2.336;2023-08-24T11:46:30;27.10;57.80
52973;DHT22;38837;48.916;2.336;2023-08-24T11:48:32;27.10;57.70
52973;DHT22;38837;48.916;2.336;2023-08-24T11:50:34;27.00;57.70
52973;DHT22;38837;48.916;2.336;2023-08-24T11:52:39;27.00;57.60
52973;DHT22;38837;48.916;2.336;2023-08-24T11:54:41;27.00;57.60
52973;DHT22;38837;48.916;2.336;2023-08-24T11:56:44;27.00;57.60
52973;DHT22;38837;48.916;2.336;2023-08-24T11:58:49;27.00;57.60
52973;DHT22;38837;48.916;2.336;2023-08-24T12:00:52;27.00;57.70
52973;DHT22;38837;48.916;2.336;2023-08-24T12:02:54;27.00;57.80
52973;DHT22;38837;48.916;2.336;2023-08-24T12:04:58;26.90;57.70
52973;DHT22;38837;48.916;2.336;2023-08-24T12:07:00;27.00;57.80
52973;DHT22;38837;48.916;2.336;2023-08-24T12:09:09;27.00;57.80
52973;DHT22;38837;48.916;2.336;2023-08-24T12:11:17;27.00;57.70
52973;DHT22;38837;48.916;2.336;2023-08-24T12:13:19;27.00;57.70
52973;DHT22;38837;48.916;2.336;2023-08-24T12:15:21;27.00;57.70
52973;DHT22;38837;48.916;2.336;2023-08-24T12:17:23;27.00;57.70
52973;DHT22;38837;48.916;2.336;2023-08-24T12:19:25;27.00;57.70
52973;DHT22;38837;48.916;2.336;2023-08-24T12:21:27;27.00;58.10
52973;DHT22;38837;48.916;2.336;2023-08-24T12:23:31;27.00;58.10
52973;DHT22;38837;48.916;2.336;2023-08-24T12:25:43;27.00;58.10
52973;DHT22;38837;48.916;2.336;2023-08-24T12:27:45;27.00;58.10
52973;DHT22;38837;48.916;2.336;2023-08-24T12:29:47;27.00;57.90
52973;DHT22;38837;48.916;2.336;2023-08-24T12:31:49;27.00;58.10
52973;DHT22;38837;48.916;2.336;2023-08-24T12:34:00;27.00;58.10
52973;DHT22;38837;48.916;2.336;2023-08-24T12:36:02;27.00;58.00
52973;DHT22;38837;48.916;2.336;2023-08-24T12:38:04;27.00;58.30
52973;DHT22;38837;48.916;2.336;2023-08-24T12:40:06;27.00;58.20
52973;DHT22;38837;48.916;2.336;2023-08-24T12:42:09;27.00;58.10
52973;DHT22;38837;48.916;2.336;2023-08-24T12:44:11;27.00;58.20
52973;DHT22;38837;48.916;2.336;2023-08-24T12:46:16;27.00;58.10
52973;DHT22;38837;48.916;2.336;2023-08-24T12:48:18;27.00;58.00
52973;DHT22;38837;48.916;2.336;2023-08-24T12:50:20;27.00;58.00
52973;DHT22;38837;48.916;2.336;2023-08-24T12:52:22;27.00;58.00
52973;DHT22;38837;48.916;2.336;2023-08-24T12:54:25;27.00;58.30
52973;DHT22;38837;48.916;2.336;2023-08-24T12:56:27;27.00;58.20
52973;DHT22;38837;48.916;2.336;2023-08-24T12:58:29;26.90;58.30
52973;DHT22;38837;48.916;2.336;2023-08-24T13:00:32;26.90;58.20
52973;DHT22;38837;48.916;2.336;2023-08-24T13:02:34;27.00;58.20
52973;DHT22;38837;48.916;2.336;2023-08-24T13:04:40;26.90;58.00
52973;DHT22;38837;48.916;2.336;2023-08-24T13:06:42;26.90;58.10